sensor_id;sensor_type;location;lat;lon;timestamp;P1;durP1;ratioP1;P2;durP2;ratioP2
13439;SDS011;6792;57.698;11.946;2024-02-21T00:02:37;25.30;;;4.83;;
13439;SDS011;6792;57.698;11.946;2024-02-21T00:05:12;18.53;;;4.53;;
13439;SDS011;6792;57.698;11.946;2024-02-21T00:07:42;26.07;;;4.93;;
13439;SDS011;6792;57.698;11.946;2024-02-21T00:10:12;25.03;;;4.60;;
13439;SDS011;6792;57.698;11.946;2024-02-21T00:12:41;24.87;;;4.67;;
13439;SDS011;6792;57.698;11.946;2024-02-21T00:15:11;15.77;;;3.63;;
13439;SDS011;6792;57.698;11.946;2024-02-21T00:17:43;23.37;;;4.70;;
13439;SDS011;6792;57.698;11.946;2024-02-21T00:20:12;22.40;;;4.90;;
13439;SDS011;6792;57.698;11.946;2024-02-21T00:22:42;23.40;;;5.10;;
13439;SDS011;6792;57.698;11.946;2024-02-21T00:25:12;26.80;;;4.77;;
13439;SDS011;6792;57.698;11.946;2024-02-21T00:27:41;30.37;;;5.33;;
13439;SDS011;6792;57.698;11.946;2024-02-21T00:30:22;19.90;;;4.50;;
13439;SDS011;6792;57.698;11.946;2024-02-21T00:32:52;24.10;;;4.87;;
13439;SDS011;6792;57.698;11.946;2024-02-21T00:35:22;18.07;;;4.30;;
13439;SDS011;6792;57.698;11.946;2024-02-21T00:37:51;21.63;;;4.33;;
13439;SDS011;6792;57.698;11.946;2024-02-21T00:40:21;23.13;;;4.10;;
13439;SDS011;6792;57.698;11.946;2024-02-21T00:42:51;17.07;;;3.83;;
13439;SDS011;6792;57.698;11.946;2024-02-21T00:45:20;15.87;;;3.93;;
13439;SDS011;6792;57.698;11.946;2024-02-21T00:47:50;15.17;;;3.77;;
13439;SDS011;6792;57.698;11.946;2024-02-21T00:53:04;17.60;;;4.30;;
13439;SDS011;6792;57.698;11.946;2024-02-21T00:55:33;15.13;;;3.57;;
13439;SDS011;6792;57.698;11.946;2024-02-21T00:58:03;16.20;;;3.90;;
13439;SDS011;6792;57.698;11.946;2024-02-21T01:00:35;17.73;;;4.70;;
13439;SDS011;6792;57.698;11.946;2024-02-21T01:03:04;14.57;;;3.73;;
13439;SDS011;6792;57.698;11.946;2024-02-21T01:05:34;21.17;;;4.60;;
13439;SDS011;6792;57.698;11.946;2024-02-21T01:08:05;21.63;;;4.77;;
13439;SDS011;6792;57.698;11.946;2024-02-21T01:10:34;14.27;;;4.57;;
13439;SDS011;6792;57.698;11.946;2024-02-21T01:13:04;16.10;;;4.13;;
13439;SDS011;6792;57.698;11.946;2024-02-21T01:15:34;20.57;;;4.33;;
13439;SDS011;6792;57.698;11.946;2024-02-21T01:18:04;24.33;;;4.33;;
13439;SDS011;6792;57.698;11.946;2024-02-21T01:20:34;21.43;;;4.73;;
13439;SDS011;6792;57.698;11.946;2024-02-21T01:23:02;16.10;;;4.30;;
13439;SDS011;6792;57.698;11.946;2024-02-21T01:25:32;12.53;;;3.20;;
13439;SDS011;6792;57.698;11.946;2024-02-21T01:28:02;13.90;;;3.87;;
13439;SDS011;6792;57.698;11.946;2024-02-21T01:30:32;13.53;;;3.63;;
13439;SDS011;6792;57.698;11.946;2024-02-21T01:33:03;11.57;;;3.53;;
13439;SDS011;6792;57.698;11.946;2024-02-21T01:35:33;13.67;;;3.37;;
13439;SDS011;6792;57.698;11.946;2024-02-21T01:38:04;12.00;;;2.70;;
13439;SDS011;6792;57.698;11.946;2024-02-21T01:40:33;14.03;;;3.13;;
13439;SDS011;6792;57.698;11.946;2024-02-21T01:43:04;11.70;;;3.20;;
13439;SDS011;6792;57.698;11.946;2024-02-21T01:48:16;10.97;;;2.80;;
13439;SDS011;6792;57.698;11.946;2024-02-21T01:50:47;12.23;;;3.13;;
13439;SDS011;6792;57.698;11.946;2024-02-21T01:53:19;8.80;;;3.00;;
13439;SDS011;6792;57.698;11.946;2024-02-21T01:55:51;10.13;;;2.57;;
13439;SDS011;6792;57.698;11.946;2024-02-21T01:58:22;14.30;;;3.50;;
13439;SDS011;6792;57.698;11.946;2024-02-21T02:00:53;11.10;;;2.70;;
13439;SDS011;6792;57.698;11.946;2024-02-21T02:03:24;6.77;;;2.50;;
13439;SDS011;6792;57.698;11.946;2024-02-21T02:05:55;10.93;;;3.03;;
13439;SDS011;6792;57.698;11.946;2024-02-21T02:08:25;6.73;;;2.73;;
13439;SDS011;6792;57.698;11.946;2024-02-21T02:10:56;14.23;;;3.30;;
13439;SDS011;6792;57.698;11.946;2024-02-21T02:13:29;12.97;;;3.10;;
13439;SDS011;6792;57.698;11.946;2024-02-21T02:16:01;11.30;;;3.13;;
13439;SDS011;6792;57.698;11.946;2024-02-21T02:18:32;9.43;;;2.77;;
13439;SDS011;6792;57.698;11.946;2024-02-21T02:21:02;9.00;;;2.80;;
13439;SDS011;6792;57.698;11.946;2024-02-21T02:23:41;9.83;;;2.90;;
13439;SDS011;6792;57.698;11.946;2024-02-21T02:26:27;10.93;;;3.40;;
13439;SDS011;6792;57.698;11.946;2024-02-21T02:29:00;14.87;;;3.80;;
13439;SDS011;6792;57.698;11.946;2024-02-21T02:31:33;9.60;;;3.70;;
13439;SDS011;6792;57.698;11.946;2024-02-21T02:34:04;8.70;;;3.53;;
13439;SDS011;6792;57.698;11.946;2024-02-21T02:36:35;10.27;;;3.77;;
13439;SDS011;6792;57.698;11.946;2024-02-21T02:39:25;10.13;;;3.30;;
13439;SDS011;6792;57.698;11.946;2024-02-21T02:41:55;9.30;;;3.83;;
13439;SDS011;6792;57.698;11.946;2024-02-21T02:44:26;10.40;;;3.57;;
13439;SDS011;6792;57.698;11.946;2024-02-21T02:47:01;11.43;;;3.50;;
13439;SDS011;6792;57.698;11.946;2024-02-21T02:49:33;10.63;;;3.77;;
13439;SDS011;6792;57.698;11.946;2024-02-21T02:52:06;17.97;;;5.17;;
13439;SDS011;6792;57.698;11.946;2024-02-21T02:54:37;10.47;;;3.90;;
13439;SDS011;6792;57.698;11.946;2024-02-21T02:57:06;14.73;;;4.30;;
13439;SDS011;6792;57.698;11.946;2024-02-21T02:59:38;8.97;;;3.67;;
13439;SDS011;6792;57.698;11.946;2024-02-21T03:02:07;8.93;;;3.50;;
13439;SDS011;6792;57.698;11.946;2024-02-21T03:04:39;15.43;;;4.10;;
13439;SDS011;6792;57.698;11.946;2024-02-21T03:07:17;10.30;;;3.03;;
13439;SDS011;6792;57.698;11.946;2024-02-21T03:09:47;10.10;;;3.13;;
13439;SDS011;6792;57.698;11.946;2024-02-21T03:12:17;8.73;;;2.83;;
13439;SDS011;6792;57.698;11.946;2024-02-21T03:17:37;6.87;;;2.57;;
13439;SDS011;6792;57.698;11.946;2024-02-21T03:22:46;8.23;;;2.77;;
13439;SDS011;6792;57.698;11.946;2024-02-21T03:25:16;5.63;;;2.20;;
13439;SDS011;6792;57.698;11.946;2024-02-21T03:27:46;4.67;;;1.90;;
13439;SDS011;6792;57.698;11.946;2024-02-21T03:30:16;3.20;;;1.93;;
13439;SDS011;6792;57.698;11.946;2024-02-21T03:32:47;4.60;;;1.67;;
13439;SDS011;6792;57.698;11.946;2024-02-21T03:35:16;2.90;;;1.27;;
13439;SDS011;6792;57.698;11.946;2024-02-21T03:37:46;3.63;;;1.50;;
13439;SDS011;6792;57.698;11.946;2024-02-21T03:40:18;4.37;;;1.20;;
13439;SDS011;6792;57.698;11.946;2024-02-21T03:42:49;3.20;;;1.10;;
13439;SDS011;6792;57.698;11.946;2024-02-21T03:45:18;2.53;;;0.97;;
13439;SDS011;6792;57.698;11.946;2024-02-21T03:47:48;3.33;;;1.10;;
13439;SDS011;6792;57.698;11.946;2024-02-21T03:50:18;0.70;;;0.50;;
13439;SDS011;6792;57.698;11.946;2024-02-21T03:52:48;1.40;;;0.80;;
13439;SDS011;6792;57.698;11.946;2024-02-21T03:55:18;3.10;;;1.00;;
13439;SDS011;6792;57.698;11.946;2024-02-21T03:57:48;2.07;;;0.73;;
13439;SDS011;6792;57.698;11.946;2024-02-21T04:00:18;1.53;;;0.90;;
13439;SDS011;6792;57.698;11.946;2024-02-21T04:02:49;1.93;;;0.70;;
13439;SDS011;6792;57.698;11.946;2024-02-21T04:05:25;0.63;;;0.50;;
13439;SDS011;6792;57.698;11.946;2024-02-21T04:07:58;0.73;;;0.73;;
13439;SDS011;6792;57.698;11.946;2024-02-21T04:10:36;1.40;;;0.60;;
13439;SDS011;6792;57.698;11.946;2024-02-21T04:13:06;0.80;;;0.60;;
13439;SDS011;6792;57.698;11.946;2024-02-21T04:15:38;1.33;;;0.60;;
13439;SDS011;6792;57.698;11.946;2024-02-21T04:18:16;1.50;;;0.90;;
13439;SDS011;6792;57.698;11.946;2024-02-21T04:20:57;0.87;;;0.60;;
13439;SDS011;6792;57.698;11.946;2024-02-21T04:23:28;1.50;;;0.97;;
13439;SDS011;6792;57.698;11.946;2024-02-21T04:25:58;0.77;;;0.70;;
13439;SDS011;6792;57.698;11.946;2024-02-21T04:28:28;2.27;;;1.03;;
13439;SDS011;6792;57.698;11.946;2024-02-21T04:30:58;1.90;;;1.10;;
13439;SDS011;6792;57.698;11.946;2024-02-21T04:33:28;1.70;;;0.90;;
13439;SDS011;6792;57.698;11.946;2024-02-21T04:35:58;1.13;;;0.70;;
13439;SDS011;6792;57.698;11.946;2024-02-21T04:38:29;1.47;;;1.00;;
13439;SDS011;6792;57.698;11.946;2024-02-21T04:41:00;3.20;;;1.10;;
13439;SDS011;6792;57.698;11.946;2024-02-21T04:43:30;1.73;;;1.30;;
13439;SDS011;6792;57.698;11.946;2024-02-21T04:46:00;1.43;;;1.17;;
13439;SDS011;6792;57.698;11.946;2024-02-21T04:48:30;2.23;;;1.10;;
13439;SDS011;6792;57.698;11.946;2024-02-21T04:50:59;2.37;;;1.40;;
13439;SDS011;6792;57.698;11.946;2024-02-21T04:53:29;3.70;;;1.53;;
13439;SDS011;6792;57.698;11.946;2024-02-21T04:55:58;1.60;;;1.30;;
13439;SDS011;6792;57.698;11.946;2024-02-21T04:58:32;5.00;;;1.73;;
13439;SDS011;6792;57.698;11.946;2024-02-21T05:01:03;2.73;;;1.50;;
13439;SDS011;6792;57.698;11.946;2024-02-21T05:03:34;4.03;;;1.67;;
13439;SDS011;6792;57.698;11.946;2024-02-21T05:06:04;3.77;;;1.67;;
13439;SDS011;6792;57.698;11.946;2024-02-21T05:08:34;5.53;;;1.30;;
13439;SDS011;6792;57.698;11.946;2024-02-21T05:11:03;3.23;;;1.67;;
13439;SDS011;6792;57.698;11.946;2024-02-21T05:13:34;4.90;;;1.47;;
13439;SDS011;6792;57.698;11.946;2024-02-21T05:16:04;3.67;;;1.60;;
13439;SDS011;6792;57.698;11.946;2024-02-21T05:18:34;2.53;;;1.37;;
13439;SDS011;6792;57.698;11.946;2024-02-21T05:23:46;2.00;;;1.33;;
13439;SDS011;6792;57.698;11.946;2024-02-21T05:26:20;2.30;;;1.10;;
13439;SDS011;6792;57.698;11.946;2024-02-21T05:28:50;5.67;;;1.40;;
13439;SDS011;6792;57.698;11.946;2024-02-21T05:31:20;2.70;;;1.10;;
13439;SDS011;6792;57.698;11.946;2024-02-21T05:33:49;4.23;;;0.80;;
13439;SDS011;6792;57.698;11.946;2024-02-21T05:36:18;4.83;;;0.80;;
13439;SDS011;6792;57.698;11.946;2024-02-21T05:38:48;5.37;;;1.43;;
13439;SDS011;6792;57.698;11.946;2024-02-21T05:41:17;4.77;;;0.63;;
13439;SDS011;6792;57.698;11.946;2024-02-21T05:43:46;3.97;;;0.80;;
13439;SDS011;6792;57.698;11.946;2024-02-21T05:46:18;3.97;;;0.60;;
13439;SDS011;6792;57.698;11.946;2024-02-21T05:48:48;1.90;;;0.70;;
13439;SDS011;6792;57.698;11.946;2024-02-21T05:51:17;3.73;;;0.93;;
13439;SDS011;6792;57.698;11.946;2024-02-21T05:53:46;2.13;;;0.83;;
13439;SDS011;6792;57.698;11.946;2024-02-21T05:56:15;4.00;;;0.83;;
13439;SDS011;6792;57.698;11.946;2024-02-21T05:58:45;7.60;;;0.83;;
13439;SDS011;6792;57.698;11.946;2024-02-21T06:01:15;4.97;;;1.10;;
13439;SDS011;6792;57.698;11.946;2024-02-21T06:03:44;3.53;;;0.80;;
13439;SDS011;6792;57.698;11.946;2024-02-21T06:06:13;6.27;;;0.70;;
13439;SDS011;6792;57.698;11.946;2024-02-21T06:08:43;7.90;;;0.97;;
13439;SDS011;6792;57.698;11.946;2024-02-21T06:11:12;3.50;;;0.80;;
13439;SDS011;6792;57.698;11.946;2024-02-21T06:13:42;3.23;;;1.17;;
13439;SDS011;6792;57.698;11.946;2024-02-21T06:16:11;7.50;;;1.20;;
13439;SDS011;6792;57.698;11.946;2024-02-21T06:18:40;3.77;;;0.97;;
13439;SDS011;6792;57.698;11.946;2024-02-21T06:21:09;3.70;;;1.40;;
13439;SDS011;6792;57.698;11.946;2024-02-21T06:23:38;4.77;;;1.23;;
13439;SDS011;6792;57.698;11.946;2024-02-21T06:26:07;5.10;;;1.40;;
13439;SDS011;6792;57.698;11.946;2024-02-21T06:28:36;5.77;;;1.33;;
13439;SDS011;6792;57.698;11.946;2024-02-21T06:31:06;6.30;;;1.63;;
13439;SDS011;6792;57.698;11.946;2024-02-21T06:33:38;4.20;;;1.20;;
13439;SDS011;6792;57.698;11.946;2024-02-21T06:38:44;4.17;;;1.03;;
13439;SDS011;6792;57.698;11.946;2024-02-21T06:41:17;3.20;;;1.17;;
13439;SDS011;6792;57.698;11.946;2024-02-21T06:43:48;3.63;;;0.80;;
13439;SDS011;6792;57.698;11.946;2024-02-21T06:46:24;3.37;;;0.87;;
13439;SDS011;6792;57.698;11.946;2024-02-21T06:48:55;3.13;;;0.63;;
13439;SDS011;6792;57.698;11.946;2024-02-21T06:51:24;6.37;;;0.80;;
13439;SDS011;6792;57.698;11.946;2024-02-21T06:53:54;3.10;;;0.77;;
13439;SDS011;6792;57.698;11.946;2024-02-21T06:56:23;2.87;;;0.53;;
13439;SDS011;6792;57.698;11.946;2024-02-21T06:58:55;1.33;;;0.60;;
13439;SDS011;6792;57.698;11.946;2024-02-21T07:01:24;3.07;;;0.63;;
13439;SDS011;6792;57.698;11.946;2024-02-21T07:03:56;1.50;;;0.50;;
13439;SDS011;6792;57.698;11.946;2024-02-21T07:06:26;1.60;;;0.30;;
13439;SDS011;6792;57.698;11.946;2024-02-21T07:08:57;2.50;;;0.50;;
13439;SDS011;6792;57.698;11.946;2024-02-21T07:11:27;2.07;;;0.60;;
13439;SDS011;6792;57.698;11.946;2024-02-21T07:13:56;0.70;;;0.47;;
13439;SDS011;6792;57.698;11.946;2024-02-21T07:16:25;1.97;;;0.47;;
13439;SDS011;6792;57.698;11.946;2024-02-21T07:18:55;0.60;;;0.33;;
13439;SDS011;6792;57.698;11.946;2024-02-21T07:21:24;1.37;;;0.40;;
13439;SDS011;6792;57.698;11.946;2024-02-21T07:23:54;1.10;;;0.40;;
13439;SDS011;6792;57.698;11.946;2024-02-21T07:26:23;1.00;;;0.40;;
13439;SDS011;6792;57.698;11.946;2024-02-21T07:28:53;1.27;;;0.70;;
13439;SDS011;6792;57.698;11.946;2024-02-21T07:31:22;2.00;;;0.33;;
13439;SDS011;6792;57.698;11.946;2024-02-21T07:33:51;0.50;;;0.40;;
13439;SDS011;6792;57.698;11.946;2024-02-21T07:36:25;0.63;;;0.37;;
13439;SDS011;6792;57.698;11.946;2024-02-21T07:38:56;0.40;;;0.40;;
13439;SDS011;6792;57.698;11.946;2024-02-21T07:41:26;1.30;;;0.50;;
13439;SDS011;6792;57.698;11.946;2024-02-21T07:43:57;0.50;;;0.40;;
13439;SDS011;6792;57.698;11.946;2024-02-21T07:46:26;0.43;;;0.43;;
13439;SDS011;6792;57.698;11.946;2024-02-21T07:48:55;0.40;;;0.40;;
13439;SDS011;6792;57.698;11.946;2024-02-21T07:51:33;2.03;;;0.50;;
13439;SDS011;6792;57.698;11.946;2024-02-21T07:54:06;1.93;;;0.50;;
13439;SDS011;6792;57.698;11.946;2024-02-21T07:56:36;2.37;;;0.97;;
13439;SDS011;6792;57.698;11.946;2024-02-21T07:59:06;2.10;;;1.00;;
13439;SDS011;6792;57.698;11.946;2024-02-21T08:01:37;2.60;;;0.80;;
13439;SDS011;6792;57.698;11.946;2024-02-21T08:04:07;2.07;;;0.90;;
13439;SDS011;6792;57.698;11.946;2024-02-21T08:06:36;1.13;;;0.93;;
13439;SDS011;6792;57.698;11.946;2024-02-21T08:09:06;3.83;;;1.43;;
13439;SDS011;6792;57.698;11.946;2024-02-21T08:11:38;2.70;;;1.30;;
13439;SDS011;6792;57.698;11.946;2024-02-21T08:14:13;1.87;;;1.20;;
13439;SDS011;6792;57.698;11.946;2024-02-21T08:16:48;3.60;;;1.40;;
13439;SDS011;6792;57.698;11.946;2024-02-21T08:19:18;3.20;;;1.70;;
13439;SDS011;6792;57.698;11.946;2024-02-21T08:21:51;2.70;;;1.87;;
13439;SDS011;6792;57.698;11.946;2024-02-21T08:24:20;3.77;;;2.20;;
13439;SDS011;6792;57.698;11.946;2024-02-21T08:26:49;1.60;;;1.50;;
13439;SDS011;6792;57.698;11.946;2024-02-21T08:29:20;3.60;;;1.80;;
13439;SDS011;6792;57.698;11.946;2024-02-21T08:31:49;1.53;;;1.10;;
13439;SDS011;6792;57.698;11.946;2024-02-21T08:34:19;4.47;;;1.10;;
13439;SDS011;6792;57.698;11.946;2024-02-21T08:36:48;3.17;;;0.87;;
13439;SDS011;6792;57.698;11.946;2024-02-21T08:39:19;2.47;;;0.67;;
13439;SDS011;6792;57.698;11.946;2024-02-21T08:41:49;2.53;;;0.73;;
13439;SDS011;6792;57.698;11.946;2024-02-21T08:44:19;0.93;;;0.53;;
13439;SDS011;6792;57.698;11.946;2024-02-21T08:46:50;1.63;;;0.67;;
13439;SDS011;6792;57.698;11.946;2024-02-21T08:49:20;1.63;;;0.60;;
13439;SDS011;6792;57.698;11.946;2024-02-21T08:51:52;2.50;;;0.70;;
13439;SDS011;6792;57.698;11.946;2024-02-21T08:54:25;2.43;;;0.70;;
13439;SDS011;6792;57.698;11.946;2024-02-21T08:57:00;0.70;;;0.50;;
13439;SDS011;6792;57.698;11.946;2024-02-21T08:59:30;0.77;;;0.50;;
13439;SDS011;6792;57.698;11.946;2024-02-21T09:02:00;2.30;;;0.60;;
13439;SDS011;6792;57.698;11.946;2024-02-21T09:04:30;1.50;;;0.63;;
13439;SDS011;6792;57.698;11.946;2024-02-21T09:07:01;1.97;;;0.50;;
13439;SDS011;6792;57.698;11.946;2024-02-21T09:09:32;2.00;;;0.40;;
13439;SDS011;6792;57.698;11.946;2024-02-21T09:12:01;0.90;;;0.50;;
13439;SDS011;6792;57.698;11.946;2024-02-21T09:14:33;1.07;;;0.20;;
13439;SDS011;6792;57.698;11.946;2024-02-21T09:17:06;1.33;;;0.40;;
13439;SDS011;6792;57.698;11.946;2024-02-21T09:22:39;1.53;;;1.00;;
13439;SDS011;6792;57.698;11.946;2024-02-21T09:25:11;5.27;;;1.67;;
13439;SDS011;6792;57.698;11.946;2024-02-21T09:27:43;5.50;;;1.40;;
13439;SDS011;6792;57.698;11.946;2024-02-21T09:30:13;10.23;;;1.90;;
13439;SDS011;6792;57.698;11.946;2024-02-21T09:32:44;9.47;;;1.43;;
13439;SDS011;6792;57.698;11.946;2024-02-21T09:35:16;6.27;;;1.50;;
13439;SDS011;6792;57.698;11.946;2024-02-21T09:37:45;7.53;;;1.63;;
13439;SDS011;6792;57.698;11.946;2024-02-21T09:40:15;11.67;;;1.60;;
13439;SDS011;6792;57.698;11.946;2024-02-21T09:42:46;6.37;;;2.17;;
13439;SDS011;6792;57.698;11.946;2024-02-21T09:45:19;7.93;;;1.63;;
13439;SDS011;6792;57.698;11.946;2024-02-21T09:47:55;7.93;;;1.37;;
13439;SDS011;6792;57.698;11.946;2024-02-21T09:50:39;6.43;;;1.13;;
13439;SDS011;6792;57.698;11.946;2024-02-21T09:53:12;1.60;;;0.77;;
13439;SDS011;6792;57.698;11.946;2024-02-21T09:55:42;2.57;;;0.90;;
13439;SDS011;6792;57.698;11.946;2024-02-21T09:58:13;7.23;;;1.10;;
13439;SDS011;6792;57.698;11.946;2024-02-21T10:00:43;4.53;;;1.27;;
13439;SDS011;6792;57.698;11.946;2024-02-21T10:03:13;3.73;;;1.10;;
13439;SDS011;6792;57.698;11.946;2024-02-21T10:05:46;1.67;;;1.17;;
13439;SDS011;6792;57.698;11.946;2024-02-21T10:08:16;2.30;;;1.50;;
13439;SDS011;6792;57.698;11.946;2024-02-21T10:10:48;3.53;;;1.30;;
13439;SDS011;6792;57.698;11.946;2024-02-21T10:13:24;7.53;;;1.43;;
13439;SDS011;6792;57.698;11.946;2024-02-21T10:16:04;14.60;;;1.70;;
13439;SDS011;6792;57.698;11.946;2024-02-21T10:18:35;6.23;;;1.53;;
13439;SDS011;6792;57.698;11.946;2024-02-21T10:21:05;3.77;;;1.53;;
13439;SDS011;6792;57.698;11.946;2024-02-21T10:23:42;4.50;;;1.30;;
13439;SDS011;6792;57.698;11.946;2024-02-21T10:26:12;4.90;;;2.27;;
13439;SDS011;6792;57.698;11.946;2024-02-21T10:28:42;2.30;;;1.10;;
13439;SDS011;6792;57.698;11.946;2024-02-21T10:31:23;1.93;;;0.80;;
13439;SDS011;6792;57.698;11.946;2024-02-21T10:33:54;2.83;;;0.90;;
13439;SDS011;6792;57.698;11.946;2024-02-21T10:36:25;1.80;;;0.77;;
13439;SDS011;6792;57.698;11.946;2024-02-21T10:38:54;5.53;;;0.90;;
13439;SDS011;6792;57.698;11.946;2024-02-21T10:41:32;4.13;;;1.17;;
13439;SDS011;6792;57.698;11.946;2024-02-21T10:44:03;6.70;;;0.90;;
13439;SDS011;6792;57.698;11.946;2024-02-21T10:49:12;1.30;;;0.90;;
13439;SDS011;6792;57.698;11.946;2024-02-21T10:51:44;5.67;;;0.90;;
13439;SDS011;6792;57.698;11.946;2024-02-21T10:54:23;1.20;;;0.70;;
13439;SDS011;6792;57.698;11.946;2024-02-21T10:56:53;1.13;;;0.70;;
13439;SDS011;6792;57.698;11.946;2024-02-21T10:59:24;1.00;;;0.90;;
13439;SDS011;6792;57.698;11.946;2024-02-21T11:01:55;2.57;;;1.33;;
13439;SDS011;6792;57.698;11.946;2024-02-21T11:04:25;6.43;;;1.93;;
13439;SDS011;6792;57.698;11.946;2024-02-21T11:06:57;5.13;;;2.07;;
13439;SDS011;6792;57.698;11.946;2024-02-21T11:09:31;2.93;;;1.47;;
13439;SDS011;6792;57.698;11.946;2024-02-21T11:12:03;3.60;;;1.40;;
13439;SDS011;6792;57.698;11.946;2024-02-21T11:14:33;3.63;;;1.70;;
13439;SDS011;6792;57.698;11.946;2024-02-21T11:17:14;3.00;;;1.60;;
13439;SDS011;6792;57.698;11.946;2024-02-21T11:19:44;4.40;;;1.93;;
13439;SDS011;6792;57.698;11.946;2024-02-21T11:22:17;5.53;;;2.00;;
13439;SDS011;6792;57.698;11.946;2024-02-21T11:24:48;3.83;;;2.00;;
13439;SDS011;6792;57.698;11.946;2024-02-21T11:27:19;6.57;;;1.80;;
13439;SDS011;6792;57.698;11.946;2024-02-21T11:29:54;3.70;;;2.23;;
13439;SDS011;6792;57.698;11.946;2024-02-21T11:32:23;5.20;;;2.63;;
13439;SDS011;6792;57.698;11.946;2024-02-21T11:34:56;9.17;;;2.40;;
13439;SDS011;6792;57.698;11.946;2024-02-21T11:37:28;4.10;;;2.53;;
13439;SDS011;6792;57.698;11.946;2024-02-21T11:40:00;10.13;;;2.70;;
13439;SDS011;6792;57.698;11.946;2024-02-21T11:42:30;5.63;;;2.63;;
13439;SDS011;6792;57.698;11.946;2024-02-21T11:45:15;6.53;;;2.80;;
13439;SDS011;6792;57.698;11.946;2024-02-21T11:47:46;5.33;;;2.87;;
13439;SDS011;6792;57.698;11.946;2024-02-21T11:50:16;3.97;;;2.40;;
13439;SDS011;6792;57.698;11.946;2024-02-21T11:52:47;7.67;;;2.80;;
13439;SDS011;6792;57.698;11.946;2024-02-21T11:55:17;8.13;;;3.10;;
13439;SDS011;6792;57.698;11.946;2024-02-21T11:57:48;6.27;;;3.13;;
13439;SDS011;6792;57.698;11.946;2024-02-21T12:00:19;9.70;;;2.87;;
13439;SDS011;6792;57.698;11.946;2024-02-21T12:02:50;4.03;;;2.43;;
13439;SDS011;6792;57.698;11.946;2024-02-21T12:05:22;5.50;;;2.27;;
13439;SDS011;6792;57.698;11.946;2024-02-21T12:10:33;7.87;;;3.00;;
13439;SDS011;6792;57.698;11.946;2024-02-21T12:13:08;3.50;;;2.67;;
13439;SDS011;6792;57.698;11.946;2024-02-21T12:15:39;6.63;;;3.03;;
13439;SDS011;6792;57.698;11.946;2024-02-21T12:18:10;5.43;;;3.23;;
13439;SDS011;6792;57.698;11.946;2024-02-21T12:20:42;6.93;;;3.20;;
13439;SDS011;6792;57.698;11.946;2024-02-21T12:23:14;9.87;;;2.70;;
13439;SDS011;6792;57.698;11.946;2024-02-21T12:25:56;7.10;;;3.20;;
13439;SDS011;6792;57.698;11.946;2024-02-21T12:28:26;13.93;;;4.37;;
13439;SDS011;6792;57.698;11.946;2024-02-21T12:30:56;8.00;;;3.07;;
13439;SDS011;6792;57.698;11.946;2024-02-21T12:33:25;6.13;;;2.50;;
13439;SDS011;6792;57.698;11.946;2024-02-21T12:35:55;2.83;;;2.47;;
13439;SDS011;6792;57.698;11.946;2024-02-21T12:38:27;3.63;;;2.23;;
13439;SDS011;6792;57.698;11.946;2024-02-21T12:40:58;6.23;;;3.07;;
13439;SDS011;6792;57.698;11.946;2024-02-21T12:43:28;5.57;;;2.90;;
13439;SDS011;6792;57.698;11.946;2024-02-21T12:45:58;4.63;;;2.80;;
13439;SDS011;6792;57.698;11.946;2024-02-21T12:48:28;4.33;;;2.40;;
13439;SDS011;6792;57.698;11.946;2024-02-21T12:50:58;5.70;;;2.47;;
13439;SDS011;6792;57.698;11.946;2024-02-21T12:53:27;6.03;;;2.90;;
13439;SDS011;6792;57.698;11.946;2024-02-21T12:55:56;9.20;;;2.73;;
13439;SDS011;6792;57.698;11.946;2024-02-21T12:58:26;7.03;;;2.50;;
13439;SDS011;6792;57.698;11.946;2024-02-21T13:00:57;5.33;;;2.23;;
13439;SDS011;6792;57.698;11.946;2024-02-21T13:03:26;4.23;;;2.93;;
13439;SDS011;6792;57.698;11.946;2024-02-21T13:05:57;6.30;;;3.07;;
13439;SDS011;6792;57.698;11.946;2024-02-21T13:08:37;5.17;;;2.47;;
13439;SDS011;6792;57.698;11.946;2024-02-21T13:11:07;4.17;;;2.60;;
13439;SDS011;6792;57.698;11.946;2024-02-21T13:13:37;6.87;;;2.60;;
13439;SDS011;6792;57.698;11.946;2024-02-21T13:16:07;4.90;;;1.87;;
13439;SDS011;6792;57.698;11.946;2024-02-21T13:18:37;4.37;;;2.03;;
13439;SDS011;6792;57.698;11.946;2024-02-21T13:21:08;2.10;;;1.70;;
13439;SDS011;6792;57.698;11.946;2024-02-21T13:23:38;4.30;;;1.77;;
13439;SDS011;6792;57.698;11.946;2024-02-21T13:26:07;4.13;;;1.70;;
13439;SDS011;6792;57.698;11.946;2024-02-21T13:28:37;2.47;;;1.70;;
13439;SDS011;6792;57.698;11.946;2024-02-21T13:31:06;3.10;;;1.70;;
13439;SDS011;6792;57.698;11.946;2024-02-21T13:33:35;2.97;;;1.70;;
13439;SDS011;6792;57.698;11.946;2024-02-21T13:36:05;3.90;;;1.90;;
13439;SDS011;6792;57.698;11.946;2024-02-21T13:38:36;3.90;;;1.63;;
13439;SDS011;6792;57.698;11.946;2024-02-21T13:41:05;1.80;;;1.33;;
13439;SDS011;6792;57.698;11.946;2024-02-21T13:43:35;4.83;;;1.70;;
13439;SDS011;6792;57.698;11.946;2024-02-21T13:46:04;1.90;;;1.57;;
13439;SDS011;6792;57.698;11.946;2024-02-21T13:48:35;1.97;;;1.20;;
13439;SDS011;6792;57.698;11.946;2024-02-21T13:51:04;1.87;;;1.23;;
13439;SDS011;6792;57.698;11.946;2024-02-21T13:53:34;1.30;;;1.20;;
13439;SDS011;6792;57.698;11.946;2024-02-21T13:56:03;3.57;;;1.23;;
13439;SDS011;6792;57.698;11.946;2024-02-21T13:58:35;1.97;;;0.97;;
13439;SDS011;6792;57.698;11.946;2024-02-21T14:01:04;2.20;;;1.10;;
13439;SDS011;6792;57.698;11.946;2024-02-21T14:03:33;3.67;;;1.10;;
13439;SDS011;6792;57.698;11.946;2024-02-21T14:06:14;3.87;;;1.00;;
13439;SDS011;6792;57.698;11.946;2024-02-21T14:08:43;3.73;;;1.10;;
13439;SDS011;6792;57.698;11.946;2024-02-21T14:11:13;3.00;;;0.73;;
13439;SDS011;6792;57.698;11.946;2024-02-21T14:13:42;3.80;;;0.97;;
13439;SDS011;6792;57.698;11.946;2024-02-21T14:16:12;4.20;;;0.73;;
13439;SDS011;6792;57.698;11.946;2024-02-21T14:18:41;2.13;;;0.73;;
13439;SDS011;6792;57.698;11.946;2024-02-21T14:21:11;4.23;;;0.80;;
13439;SDS011;6792;57.698;11.946;2024-02-21T14:23:40;2.83;;;1.10;;
13439;SDS011;6792;57.698;11.946;2024-02-21T14:26:10;3.97;;;0.70;;
13439;SDS011;6792;57.698;11.946;2024-02-21T14:28:40;3.70;;;0.70;;
13439;SDS011;6792;57.698;11.946;2024-02-21T14:31:10;3.60;;;0.90;;
13439;SDS011;6792;57.698;11.946;2024-02-21T14:33:39;3.37;;;0.90;;
13439;SDS011;6792;57.698;11.946;2024-02-21T14:36:08;1.57;;;0.60;;
13439;SDS011;6792;57.698;11.946;2024-02-21T14:38:38;1.77;;;0.50;;
13439;SDS011;6792;57.698;11.946;2024-02-21T14:41:07;6.17;;;0.90;;
13439;SDS011;6792;57.698;11.946;2024-02-21T14:43:38;6.23;;;0.80;;
13439;SDS011;6792;57.698;11.946;2024-02-21T14:46:10;4.43;;;0.93;;
13439;SDS011;6792;57.698;11.946;2024-02-21T14:48:39;7.23;;;1.30;;
13439;SDS011;6792;57.698;11.946;2024-02-21T14:51:08;6.17;;;1.07;;
13439;SDS011;6792;57.698;11.946;2024-02-21T14:53:38;3.07;;;0.70;;
13439;SDS011;6792;57.698;11.946;2024-02-21T14:56:12;7.40;;;1.40;;
13439;SDS011;6792;57.698;11.946;2024-02-21T14:58:42;6.40;;;1.27;;
13439;SDS011;6792;57.698;11.946;2024-02-21T15:01:13;7.73;;;1.20;;
13439;SDS011;6792;57.698;11.946;2024-02-21T15:03:43;5.37;;;1.33;;
13439;SDS011;6792;57.698;11.946;2024-02-21T15:06:12;13.53;;;1.50;;
13439;SDS011;6792;57.698;11.946;2024-02-21T15:08:42;10.27;;;1.60;;
13439;SDS011;6792;57.698;11.946;2024-02-21T15:11:12;7.90;;;1.57;;
13439;SDS011;6792;57.698;11.946;2024-02-21T15:13:42;9.30;;;1.67;;
13439;SDS011;6792;57.698;11.946;2024-02-21T15:16:12;7.23;;;1.67;;
13439;SDS011;6792;57.698;11.946;2024-02-21T15:18:44;9.80;;;2.33;;
13439;SDS011;6792;57.698;11.946;2024-02-21T15:21:13;9.50;;;2.33;;
13439;SDS011;6792;57.698;11.946;2024-02-21T15:23:42;12.10;;;2.13;;
13439;SDS011;6792;57.698;11.946;2024-02-21T15:26:12;7.70;;;2.00;;
13439;SDS011;6792;57.698;11.946;2024-02-21T15:28:41;13.43;;;2.20;;
13439;SDS011;6792;57.698;11.946;2024-02-21T15:31:19;11.70;;;2.33;;
13439;SDS011;6792;57.698;11.946;2024-02-21T15:33:49;9.63;;;2.47;;